createdAt,value
2024-03-26T00:00:48.245Z,88.95
2024-03-26T00:03:38.534Z,89.36
2024-03-26T00:06:09.110Z,90.05
2024-03-26T00:08:39.527Z,90.86
2024-03-26T00:11:09.963Z,91.06
2024-03-26T00:13:40.247Z,90.87
2024-03-26T00:16:10.957Z,90.53
2024-03-26T00:18:41.408Z,90.19
2024-03-26T00:21:11.759Z,89.81
2024-03-26T00:23:42.146Z,89.19
2024-03-26T00:26:12.492Z,88.92
2024-03-26T00:28:44.045Z,89.12
2024-03-26T00:31:14.752Z,89.67
2024-03-26T00:33:45.233Z,90.69
2024-03-26T00:36:15.820Z,90.88
2024-03-26T00:38:46.056Z,90.81
2024-03-26T00:41:16.417Z,90.81
2024-03-26T00:43:46.822Z,90.15
2024-03-26T00:46:17.206Z,89.64
2024-03-26T00:48:47.597Z,90.04
2024-03-26T00:51:18.131Z,90.44
2024-03-26T00:53:48.333Z,90.26
2024-03-26T00:56:18.831Z,89.56
2024-03-26T00:58:49.178Z,89.65
2024-03-26T01:01:19.878Z,90.15
2024-03-26T01:03:53.613Z,90.44
2024-03-26T01:06:30.330Z,90.22
2024-03-26T01:09:00.710Z,90.54
2024-03-26T01:11:31.125Z,90.79
2024-03-26T01:14:01.471Z,91.09
2024-03-26T01:16:32.021Z,91.26
2024-03-26T01:19:02.766Z,91.34
2024-03-26T01:21:33.134Z,91.79
2024-03-26T01:24:03.636Z,91.89
2024-03-26T01:26:34.839Z,92.20
2024-03-26T01:29:05.235Z,92.42
2024-03-26T01:31:35.507Z,92.42
2024-03-26T01:34:05.741Z,92.25
2024-03-26T01:36:36.243Z,92.51
2024-03-26T01:39:06.724Z,92.65
2024-03-26T01:41:37.278Z,93.57
2024-03-26T01:44:07.860Z,93.59
2024-03-26T01:46:39.199Z,93.30
2024-03-26T01:49:11.968Z,93.26
2024-03-26T01:51:44.551Z,93.29
2024-03-26T01:54:15.592Z,93.14
2024-03-26T01:56:45.089Z,93.33
2024-03-26T01:59:16.608Z,92.87
2024-03-26T02:01:46.150Z,92.53
2024-03-26T02:04:17.395Z,91.28
2024-03-26T02:06:48.156Z,91.29
2024-03-26T02:09:18.482Z,91.55
2024-03-26T02:11:48.773Z,92.19
2024-03-26T02:14:19.235Z,92.50
2024-03-26T02:16:49.606Z,93.23
2024-03-26T02:19:23.604Z,93.38
2024-03-26T02:21:54.185Z,92.87
2024-03-26T02:24:24.900Z,92.83
2024-03-26T02:26:55.148Z,93.04
2024-03-26T02:29:25.578Z,93.56
2024-03-26T02:31:55.893Z,93.68
2024-03-26T02:34:26.474Z,93.93
2024-03-26T02:36:57.036Z,94.30
2024-03-26T02:39:27.555Z,94.25
2024-03-26T02:41:58.263Z,94.16
2024-03-26T02:44:28.768Z,94.11
2024-03-26T02:46:59.090Z,94.68
2024-03-26T02:49:29.620Z,95.48
2024-03-26T02:51:59.989Z,95.27
2024-03-26T02:54:30.677Z,95.38
2024-03-26T02:57:01.163Z,95.74
2024-03-26T02:59:32.169Z,95.70
2024-03-26T03:02:00.960Z,95.05
2024-03-26T03:04:31.484Z,94.50
2024-03-26T03:07:01.999Z,94.27
2024-03-26T03:09:32.387Z,94.27
2024-03-26T03:12:02.692Z,93.31
2024-03-26T03:14:32.955Z,92.85
2024-03-26T03:17:03.321Z,92.88
2024-03-26T03:19:33.734Z,92.42
2024-03-26T03:22:04.548Z,92.19
2024-03-26T03:24:35.134Z,92.42
2024-03-26T03:27:06.104Z,92.80
2024-03-26T03:29:36.613Z,93.54
2024-03-26T03:32:08.795Z,94.31
2024-03-26T03:34:39.366Z,94.38
2024-03-26T03:37:09.881Z,94.50
2024-03-26T03:39:40.176Z,94.49
2024-03-26T03:42:10.731Z,94.72
2024-03-26T03:44:41.234Z,94.80
2024-03-26T03:47:11.625Z,94.49
2024-03-26T03:49:42.249Z,94.73
2024-03-26T03:52:13.074Z,95.25
2024-03-26T03:54:43.833Z,95.80
2024-03-26T03:57:14.149Z,95.80
2024-03-26T03:59:45.839Z,96.08
2024-03-26T04:02:16.422Z,96.11
2024-03-26T04:04:48.407Z,96.69
2024-03-26T04:07:18.956Z,97.30
2024-03-26T04:09:49.255Z,97.92
2024-03-26T04:12:19.561Z,97.79
2024-03-26T04:14:50.272Z,97.81
2024-03-26T04:17:20.637Z,97.64
2024-03-26T04:19:51.018Z,97.61
2024-03-26T04:22:21.426Z,98.74
2024-03-26T04:24:51.724Z,98.48
2024-03-26T04:27:22.130Z,98.58
2024-03-26T04:29:53.128Z,98.88
2024-03-26T04:32:23.500Z,99.12
2024-03-26T04:34:53.993Z,99.19
2024-03-26T04:37:26.739Z,99.26
2024-03-26T04:39:57.136Z,99.38
2024-03-26T04:42:27.422Z,99.28
2024-03-26T04:44:58.061Z,99.58
2024-03-26T04:47:28.531Z,99.50
2024-03-26T04:49:59.024Z,99.48
2024-03-26T04:52:29.577Z,99.37
2024-03-26T04:55:00.234Z,99.09
2024-03-26T04:57:30.651Z,98.95
2024-03-26T05:00:01.132Z,99.03
2024-03-26T05:02:31.728Z,98.98
2024-03-26T05:05:02.145Z,99.06
2024-03-26T05:07:33.927Z,98.91
2024-03-26T05:10:09.186Z,99.44
2024-03-26T05:12:40.731Z,99.06
2024-03-26T05:15:12.548Z,99.39
2024-03-26T05:17:42.894Z,99.25
2024-03-26T05:20:14.580Z,99.36
2024-03-26T05:22:44.985Z,99.42
2024-03-26T05:25:15.492Z,99.27
2024-03-26T05:27:45.863Z,99.48
2024-03-26T05:30:17.035Z,98.84
2024-03-26T05:32:47.550Z,98.90
2024-03-26T05:35:17.933Z,99.14
2024-03-26T05:37:50.085Z,99.04
2024-03-26T05:40:20.546Z,99.08
2024-03-26T05:42:51.060Z,99.48
2024-03-26T05:45:21.449Z,99.95
2024-03-26T05:47:53.419Z,100.00
2024-03-26T05:50:23.868Z,100.00
2024-03-26T05:52:54.242Z,100.00
2024-03-26T05:55:24.490Z,100.00
2024-03-26T05:57:54.883Z,100.00
2024-03-26T06:00:25.257Z,100.00
2024-03-26T06:02:55.796Z,100.00
2024-03-26T06:05:26.453Z,100.00
2024-03-26T06:07:56.718Z,100.00
2024-03-26T06:10:27.148Z,100.00
2024-03-26T06:12:57.608Z,100.00
2024-03-26T06:15:28.001Z,100.00
2024-03-26T06:17:58.411Z,100.00
2024-03-26T06:20:28.693Z,100.00
2024-03-26T06:22:59.120Z,100.00
2024-03-26T06:25:30.368Z,100.00
2024-03-26T06:28:14.306Z,100.00
2024-03-26T06:30:44.603Z,100.00
2024-03-26T06:33:15.367Z,100.00
2024-03-26T06:35:46.100Z,100.00
2024-03-26T06:38:16.763Z,100.00
2024-03-26T06:40:48.095Z,100.00
2024-03-26T06:43:19.068Z,100.00
2024-03-26T06:45:48.250Z,100.00
2024-03-26T06:48:18.489Z,100.00
2024-03-26T06:50:50.364Z,100.00
2024-03-26T06:53:21.319Z,100.00
2024-03-26T06:55:51.716Z,100.00
2024-03-26T06:58:22.116Z,100.00
2024-03-26T07:00:52.807Z,100.00
2024-03-26T07:03:23.204Z,100.00
2024-03-26T07:05:53.606Z,100.00
2024-03-26T07:08:25.737Z,100.00
2024-03-26T07:10:56.813Z,100.00
2024-03-26T07:13:25.537Z,98.73
2024-03-26T07:15:55.883Z,96.44
2024-03-26T07:18:26.331Z,97.36
2024-03-26T07:20:56.896Z,98.42
2024-03-26T07:23:28.303Z,98.04
2024-03-26T07:25:59.419Z,96.18
2024-03-26T07:28:28.188Z,95.43
2024-03-26T07:30:59.094Z,95.71
2024-03-26T07:33:30.094Z,95.88
2024-03-26T07:36:02.060Z,94.87
2024-03-26T07:38:33.012Z,92.67
2024-03-26T07:41:04.066Z,90.10
2024-03-26T07:43:34.566Z,88.76
2024-03-26T07:46:05.710Z,89.60
2024-03-26T07:48:34.544Z,88.90
2024-03-26T07:51:09.209Z,88.10
2024-03-26T07:53:40.143Z,88.39
2024-03-26T07:56:10.675Z,87.52
2024-03-26T07:58:41.734Z,87.04
2024-03-26T08:01:12.446Z,86.49
2024-03-26T08:03:43.105Z,85.84
2024-03-26T08:06:13.627Z,84.73
2024-03-26T08:08:46.414Z,85.02
2024-03-26T08:11:17.071Z,83.12
2024-03-26T08:13:48.130Z,83.80
2024-03-26T08:16:19.304Z,82.52
2024-03-26T08:18:49.723Z,83.49
2024-03-26T08:21:20.150Z,82.56
2024-03-26T08:23:50.869Z,83.02
2024-03-26T08:26:21.329Z,83.66
2024-03-26T08:28:51.799Z,83.28
2024-03-26T08:31:22.201Z,82.02
2024-03-26T08:33:52.916Z,81.84
2024-03-26T08:36:23.363Z,81.81
2024-03-26T08:38:53.786Z,82.45
2024-03-26T08:41:24.795Z,78.54
2024-03-26T08:43:54.547Z,79.32
2024-03-26T08:46:25.120Z,80.02
2024-03-26T08:48:55.683Z,79.07
2024-03-26T08:51:25.981Z,78.73
2024-03-26T08:53:56.418Z,79.05
2024-03-26T08:56:27.685Z,77.88
2024-03-26T08:58:58.021Z,77.88
2024-03-26T09:01:28.417Z,75.54
2024-03-26T09:03:58.848Z,77.43
2024-03-26T09:06:29.300Z,74.32
2024-03-26T09:08:59.709Z,77.08
2024-03-26T09:11:30.748Z,73.80
2024-03-26T09:13:59.567Z,74.58
2024-03-26T09:16:30.188Z,76.37
2024-03-26T09:19:01.781Z,75.24
2024-03-26T09:21:33.608Z,74.79
2024-03-26T09:24:04.160Z,71.66
2024-03-26T09:26:34.604Z,71.35
2024-03-26T09:29:05.356Z,72.60
2024-03-26T09:31:35.942Z,71.88
2024-03-26T09:34:06.384Z,72.11
2024-03-26T09:36:37.927Z,71.69
2024-03-26T09:39:10.564Z,72.77
2024-03-26T09:41:42.146Z,71.14
2024-03-26T09:44:13.601Z,71.93
2024-03-26T09:46:45.723Z,71.95
2024-03-26T09:49:18.236Z,71.94
2024-03-26T09:51:51.876Z,72.21
2024-03-26T09:54:23.412Z,71.16
2024-03-26T09:56:55.029Z,68.50
2024-03-26T09:59:26.052Z,64.38
2024-03-26T10:01:58.465Z,67.91
2024-03-26T10:04:29.071Z,69.18
2024-03-26T10:06:59.678Z,69.61
2024-03-26T10:09:30.962Z,67.02
2024-03-26T10:12:01.560Z,64.61
2024-03-26T10:14:32.331Z,65.34
2024-03-26T10:17:01.354Z,64.56
2024-03-26T10:19:31.709Z,64.17
2024-03-26T10:22:02.518Z,61.19
2024-03-26T10:24:33.327Z,63.22
2024-03-26T10:27:04.193Z,65.12
2024-03-26T10:29:36.476Z,64.26
2024-03-26T10:32:07.405Z,66.07
2024-03-26T10:34:39.085Z,65.49
2024-03-26T10:37:10.721Z,62.48
2024-03-26T10:39:47.140Z,60.66
2024-03-26T10:42:20.343Z,61.73
2024-03-26T10:44:51.237Z,63.42
2024-03-26T10:47:22.784Z,63.64
2024-03-26T10:49:54.228Z,60.33
2024-03-26T10:52:26.947Z,59.12
2024-03-26T10:54:59.312Z,61.76
2024-03-26T10:57:31.255Z,60.19
2024-03-26T11:00:02.587Z,59.19
2024-03-26T11:02:33.685Z,58.76
2024-03-26T11:05:02.971Z,58.21
2024-03-26T11:07:36.040Z,57.59
2024-03-26T11:10:12.500Z,60.30
2024-03-26T11:12:43.563Z,59.94
2024-03-26T11:15:19.933Z,58.49
2024-03-26T11:17:59.524Z,56.65
2024-03-26T11:20:32.102Z,58.24
2024-03-26T11:23:04.616Z,59.22
2024-03-26T11:25:35.796Z,57.53
2024-03-26T11:28:06.951Z,58.14
2024-03-26T11:30:37.910Z,60.13
2024-03-26T11:33:07.057Z,58.80
2024-03-26T11:35:37.720Z,60.61
2024-03-26T11:38:08.772Z,58.49
2024-03-26T11:40:40.696Z,57.73
2024-03-26T11:43:11.172Z,56.55
2024-03-26T11:45:41.912Z,56.93
2024-03-26T11:48:16.295Z,57.49
2024-03-26T11:50:47.404Z,58.34
2024-03-26T11:53:17.826Z,57.91
2024-03-26T11:55:49.467Z,56.42
2024-03-26T11:58:26.668Z,56.94
2024-03-26T12:00:56.989Z,55.87
2024-03-26T12:03:27.668Z,57.62
2024-03-26T12:05:57.006Z,55.51
2024-03-26T12:08:27.789Z,52.80
2024-03-26T12:10:58.187Z,53.82
2024-03-26T12:13:28.763Z,56.59
2024-03-26T12:15:59.187Z,56.59
2024-03-26T12:18:33.617Z,56.34
2024-03-26T12:21:06.345Z,54.00
2024-03-26T12:23:36.867Z,53.55
2024-03-26T12:26:07.939Z,53.83
2024-03-26T12:28:41.770Z,53.18
2024-03-26T12:31:12.733Z,51.17
2024-03-26T12:33:43.511Z,53.35
2024-03-26T12:36:15.894Z,54.02
2024-03-26T12:38:44.752Z,53.83
2024-03-26T12:41:15.329Z,53.96
2024-03-26T12:43:45.867Z,52.91
2024-03-26T12:46:16.316Z,53.81
2024-03-26T12:48:46.703Z,52.58
2024-03-26T12:51:17.511Z,52.69
2024-03-26T12:53:48.012Z,52.56
2024-03-26T12:56:18.537Z,51.07
2024-03-26T12:58:49.106Z,50.68
2024-03-26T13:01:19.531Z,52.05
2024-03-26T13:03:50.712Z,49.81
2024-03-26T13:06:21.352Z,51.14
2024-03-26T13:08:52.399Z,51.15
2024-03-26T13:11:23.367Z,49.85
2024-03-26T13:13:54.474Z,51.23
2024-03-26T13:16:25.050Z,52.21
2024-03-26T13:18:55.536Z,51.69
2024-03-26T13:21:26.176Z,50.24
2024-03-26T13:23:57.161Z,49.60
2024-03-26T13:26:27.949Z,51.00
2024-03-26T13:28:58.397Z,48.75
2024-03-26T13:31:28.967Z,49.59
2024-03-26T13:33:59.827Z,49.38
2024-03-26T13:36:28.626Z,50.93
2024-03-26T13:38:59.948Z,51.59
2024-03-26T13:41:30.444Z,49.50
2024-03-26T13:44:01.716Z,48.47
2024-03-26T13:46:32.148Z,47.93
2024-03-26T13:49:03.420Z,46.93
2024-03-26T13:51:33.764Z,46.95
2024-03-26T13:54:06.695Z,47.22
2024-03-26T13:56:38.732Z,48.53
2024-03-26T13:59:10.649Z,48.38
2024-03-26T14:01:41.229Z,48.40
2024-03-26T14:04:11.582Z,47.74
2024-03-26T14:06:42.249Z,46.52
2024-03-26T14:09:13.503Z,48.12
2024-03-26T14:11:44.327Z,46.77
2024-03-26T14:14:15.026Z,47.07
2024-03-26T14:16:45.341Z,47.60
2024-03-26T14:19:15.873Z,46.50
2024-03-26T14:21:46.391Z,47.41
2024-03-26T14:24:16.647Z,47.98
2024-03-26T14:26:47.130Z,48.81
2024-03-26T14:29:17.690Z,48.80
2024-03-26T14:31:48.310Z,47.80
2024-03-26T14:34:24.668Z,46.95
2024-03-26T14:36:55.028Z,46.95
2024-03-26T14:39:25.503Z,47.83
2024-03-26T14:41:55.851Z,47.86
2024-03-26T14:44:26.356Z,47.53
2024-03-26T14:46:57.183Z,47.49
2024-03-26T14:49:27.575Z,47.82
2024-03-26T14:51:58.020Z,47.48
2024-03-26T14:54:28.772Z,48.06
2024-03-26T14:56:57.756Z,46.94
2024-03-26T14:59:28.486Z,47.98
2024-03-26T15:01:58.823Z,47.90
2024-03-26T15:04:29.300Z,48.35
2024-03-26T15:06:59.711Z,48.82
2024-03-26T15:09:30.272Z,49.52
2024-03-26T15:12:00.800Z,49.71
2024-03-26T15:14:31.608Z,49.57
2024-03-26T15:17:01.987Z,49.74
2024-03-26T15:27:32.413Z,49.84
2024-03-26T15:30:07.071Z,49.88
2024-03-26T15:33:14.567Z,49.42
2024-03-26T15:36:42.292Z,49.92
2024-03-26T15:39:16.511Z,50.14
2024-03-26T15:42:09.508Z,50.39
2024-03-26T15:44:40.495Z,50.56
2024-03-26T15:47:11.211Z,50.54
2024-03-26T15:49:41.784Z,49.72
2024-03-26T15:52:12.474Z,50.17
2024-03-26T15:55:08.474Z,50.40
2024-03-26T15:57:39.011Z,49.68
2024-03-26T16:00:13.879Z,50.27
2024-03-26T16:05:21.814Z,49.96
2024-03-26T16:06:06.017Z,50.18
2024-03-26T16:08:48.573Z,50.39
2024-03-26T16:11:22.495Z,50.83
2024-03-26T16:13:53.277Z,50.86
2024-03-26T16:16:23.882Z,50.74
2024-03-26T16:18:54.290Z,51.07
2024-03-26T16:21:24.937Z,50.98
2024-03-26T16:23:55.492Z,50.54
2024-03-26T16:26:25.731Z,51.11
2024-03-26T16:28:58.662Z,51.08
2024-03-26T16:31:30.156Z,51.03
2024-03-26T16:34:02.048Z,50.98
2024-03-26T16:37:03.782Z,51.03
2024-03-26T16:39:34.734Z,51.22
2024-03-26T16:42:06.054Z,51.22
2024-03-26T16:45:02.917Z,51.05
2024-03-26T16:47:33.933Z,51.25
2024-03-26T16:50:05.132Z,51.34
2024-03-26T16:52:38.168Z,51.16
2024-03-26T16:55:37.306Z,51.25
2024-03-26T16:58:32.153Z,51.42
2024-03-26T17:01:03.704Z,51.30
2024-03-26T17:03:34.108Z,51.05
2024-03-26T17:06:11.438Z,50.85
2024-03-26T17:08:44.422Z,50.51
2024-03-26T17:11:14.932Z,50.95
2024-03-26T17:13:45.703Z,50.53
2024-03-26T17:16:16.019Z,50.77
2024-03-26T17:18:46.518Z,50.57
2024-03-26T17:21:16.939Z,50.75
2024-03-26T17:24:08.685Z,50.94
2024-03-26T17:26:39.156Z,50.49
2024-03-26T17:29:09.459Z,50.60
2024-03-26T17:31:39.914Z,50.48
2024-03-26T17:34:10.372Z,50.33
2024-03-26T17:36:40.818Z,50.16
2024-03-26T17:39:11.968Z,50.25
2024-03-26T17:41:42.418Z,50.38
2024-03-26T17:44:12.819Z,50.56
2024-03-26T17:46:43.173Z,50.81
2024-03-26T17:49:13.818Z,50.82
2024-03-26T17:51:46.506Z,50.69
2024-03-26T17:54:17.012Z,50.78
2024-03-26T17:56:48.307Z,50.53
2024-03-26T17:59:19.215Z,50.74
2024-03-26T18:01:50.319Z,50.85
2024-03-26T18:04:22.178Z,50.76
2024-03-26T18:06:55.812Z,50.85
2024-03-26T18:09:28.934Z,51.06
2024-03-26T18:12:00.280Z,50.99
2024-03-26T18:14:30.609Z,51.30
2024-03-26T18:17:00.870Z,51.32
2024-03-26T18:19:31.383Z,51.33
2024-03-26T18:22:01.690Z,51.34
2024-03-26T18:24:34.209Z,51.65
2024-03-26T18:27:04.680Z,51.72
2024-03-26T18:29:37.727Z,51.74
2024-03-26T18:32:10.124Z,51.77
2024-03-26T18:34:41.071Z,51.95
2024-03-26T18:37:45.705Z,52.08
2024-03-26T18:40:06.445Z,52.27
2024-03-26T18:42:36.877Z,52.26
2024-03-26T18:45:11.602Z,52.39
2024-03-26T18:47:42.127Z,52.39
2024-03-26T18:50:37.718Z,52.56
2024-03-26T18:53:06.014Z,52.53
2024-03-26T18:55:36.469Z,52.55
2024-03-26T18:58:08.922Z,52.72
2024-03-26T19:00:39.721Z,52.83
2024-03-26T19:03:10.233Z,52.83
2024-03-26T19:05:47.256Z,53.04
2024-03-26T19:08:25.182Z,52.94
2024-03-26T19:11:25.392Z,53.02
2024-03-26T19:13:54.099Z,53.09
2024-03-26T19:16:24.445Z,53.28
2024-03-26T19:18:54.959Z,53.40
2024-03-26T19:21:26.856Z,53.50
2024-03-26T19:23:57.497Z,53.59
2024-03-26T19:26:28.132Z,53.60
2024-03-26T19:28:58.693Z,53.69
2024-03-26T19:31:30.270Z,53.84
2024-03-26T19:34:00.940Z,53.78
2024-03-26T19:36:33.841Z,53.90
2024-03-26T19:39:04.504Z,53.90
2024-03-26T19:41:34.952Z,54.00
2024-03-26T19:44:06.472Z,53.97
2024-03-26T19:46:37.428Z,53.98
2024-03-26T19:49:10.568Z,54.12
2024-03-26T19:51:40.959Z,54.09
2024-03-26T19:54:11.571Z,54.10
2024-03-26T19:56:41.975Z,54.14
2024-03-26T19:59:13.729Z,54.22
2024-03-26T20:01:44.074Z,54.02
2024-03-26T20:04:14.612Z,54.13
2024-03-26T20:06:45.029Z,54.19
2024-03-26T20:09:20.591Z,54.24
2024-03-26T20:11:50.945Z,54.24
2024-03-26T20:14:44.986Z,54.17
2024-03-26T20:17:14.798Z,54.31
2024-03-26T20:19:47.022Z,54.21
2024-03-26T20:22:19.962Z,54.45
2024-03-26T20:24:50.366Z,54.55
2024-03-26T20:27:37.501Z,54.70
2024-03-26T20:30:14.110Z,54.66
2024-03-26T20:32:46.503Z,54.73
2024-03-26T20:35:18.416Z,54.61
2024-03-26T20:37:49.226Z,54.93
2024-03-26T20:40:19.862Z,54.77
2024-03-26T20:42:50.104Z,54.93
2024-03-26T20:45:20.842Z,54.90
2024-03-26T20:47:51.969Z,54.84
2024-03-26T20:50:22.430Z,54.95
2024-03-26T20:52:54.133Z,54.95
2024-03-26T20:55:54.450Z,54.99
2024-03-26T20:58:25.300Z,54.97
2024-03-26T21:00:55.820Z,55.16
2024-03-26T21:03:27.139Z,55.18
2024-03-26T21:06:22.318Z,55.24
2024-03-26T21:08:50.784Z,55.25
2024-03-26T21:11:21.238Z,55.29
2024-03-26T21:13:54.153Z,55.25
2024-03-26T21:16:24.549Z,55.41
2024-03-26T21:18:55.038Z,55.44
2024-03-26T21:21:25.619Z,55.37
2024-03-26T21:23:56.153Z,55.43
2024-03-26T21:26:26.818Z,55.59
2024-03-26T21:28:57.078Z,55.80
2024-03-26T21:31:28.643Z,55.84
2024-03-26T21:33:59.307Z,56.16
2024-03-26T21:36:29.763Z,56.30
2024-03-26T21:39:00.129Z,56.28
2024-03-26T21:41:30.738Z,56.46
2024-03-26T21:44:02.091Z,56.62
2024-03-26T21:46:32.499Z,56.97
2024-03-26T21:49:02.818Z,57.13
2024-03-26T21:51:33.408Z,57.22
2024-03-26T21:54:03.864Z,57.23
2024-03-26T21:56:54.936Z,57.24
2024-03-26T21:59:25.593Z,57.50
2024-03-26T22:01:56.168Z,57.42
2024-03-26T22:04:27.171Z,57.67
2024-03-26T22:06:57.679Z,57.69
2024-03-26T22:09:28.086Z,57.75
2024-03-26T22:11:58.405Z,57.67
2024-03-26T22:14:28.923Z,57.54
2024-03-26T22:16:59.212Z,57.75
2024-03-26T22:19:29.497Z,57.80
2024-03-26T22:21:59.863Z,57.67
2024-03-26T22:24:30.316Z,57.84
2024-03-26T22:27:01.378Z,57.92
2024-03-26T22:29:30.349Z,57.84
2024-03-26T22:32:01.242Z,57.86
2024-03-26T22:34:32.874Z,57.90
2024-03-26T22:37:03.412Z,58.06
2024-03-26T22:39:33.804Z,58.05
2024-03-26T22:42:04.854Z,58.04
2024-03-26T22:44:33.919Z,58.03
2024-03-26T22:47:04.647Z,58.22
2024-03-26T22:49:34.882Z,58.27
2024-03-26T22:52:07.439Z,58.34
2024-03-26T22:54:37.967Z,58.42
2024-03-26T22:57:08.833Z,58.60
2024-03-26T23:02:56.008Z,58.62
2024-03-26T23:05:26.517Z,58.55
2024-03-26T23:07:56.871Z,58.70
2024-03-26T23:10:27.442Z,58.64
2024-03-26T23:12:57.955Z,58.72
2024-03-26T23:15:28.307Z,58.60
2024-03-26T23:17:58.810Z,58.66
2024-03-26T23:20:29.363Z,58.58
2024-03-26T23:23:09.877Z,58.58
2024-03-26T23:25:40.285Z,58.71
2024-03-26T23:28:10.936Z,58.60
2024-03-26T23:30:41.337Z,58.55
2024-03-26T23:33:12.311Z,58.54
2024-03-26T23:35:42.729Z,58.54
2024-03-26T23:38:13.290Z,58.47
2024-03-26T23:40:43.726Z,58.49
2024-03-26T23:43:14.038Z,58.44
2024-03-26T23:45:44.468Z,58.28
2024-03-26T23:48:15.333Z,58.36
2024-03-26T23:50:45.637Z,58.33
2024-03-26T23:53:16.057Z,58.40
2024-03-26T23:55:46.739Z,58.30
2024-03-26T23:58:17.238Z,58.25
